Air Navigation Services of Czech Republic
Airport: LKPR Updated:  20.09.2021 16:30:28  UTC
 METAR LKPR 20.09. 16:30 ...
METAR LKPR 201630Z 02005KT 330V050 9999 FEW040 BKN048 12/05 Q1021 NOSIG RMK REG QNH 1017=
 TAF LKPR 20.09. 11:00 ...
TAF LKPR 201100Z 2012/2118 02006KT 9999 BKN036      BECMG 2022/2100 33003KT      TEMPO 2022/2107 BKN014      PROB30 TEMPO 2022/2107 4000 BR BKN009=